• Join FlightAware (Why Join?)
  • Login
  • US Flag 
08:26PM EDT


 

Airport Tracker/Info


-or-


 

Live Flight TrackerFlight Track Log ✈ CHQ5098 ✈ 27-Apr-2013 ✈ KORD - KGRB

Flight Track Log - Related Links

Times and Time Zones

All times are in EDT time to prevent confusion due to time zone crossing. See the CHQ5098 flight status page for this flight to view local times or setup timezone preferences in your user account.

Time Position Orientation Groundspeed Altitude Reporting Facility
EDT Latitude Longitude Course Direction KTS MPH feet Rate Location/Type
06:55PM 41.9167 -87.9167 352° North 173 199 2,400  Level Chicago TRACON
06:56PM 41.9333 -87.8500 71° East 218 251 4,500 1,980 Climbing Chicago TRACON
06:57PM 42.1986 -87.9743 340° North  Level FlightAware Approximate
06:57PM 42.0000 -87.8333 11° North 271 312 6,200  Level Chicago TRACON
06:58PM 42.2764 -87.9983 350° North  Level FlightAware Approximate
06:58PM 42.0667 -87.8167 11° North 288 331 8,500  Level Chicago TRACON
06:59PM 42.3548 -88.0191 340° North  Level FlightAware Approximate
07:00PM 42.4305 -88.0528 352° North  Level FlightAware Approximate
07:00PM 42.2025 -87.8183 359° North 301 346 12,100  Level Chicago Center
07:01PM 42.2917 -87.8292 355° North 320 368 13,700 1,560 Climbing Chicago Center
07:02PM 42.4011 -87.8428 355° North 344 396 15,400 1,080 Climbing Chicago Center
07:03PM 42.5028 -87.8575 354° North 364 419 16,000 300 Climbing Chicago Center
07:04PM 42.6094 -87.8708 355° North 383 441 16,100  Climbing Chicago Center
07:05PM 42.7158 -87.8856 354° North 384 442 16,100  Level Chicago Center
07:06PM 42.8214 -87.9011 354° North 382 440 16,100  Level Chicago Center
07:07PM 42.9286 -87.9128 355° North 385 443 16,100  Level Chicago Center
07:08PM 43.0519 -87.9308 354° North 384 442 16,100  Level Chicago Center
07:09PM 43.1583 -87.9453 354° North 384 442 16,100  Level Chicago Center
07:10PM 43.2644 -87.9606 354° North 386 444 16,100  Level Chicago Center
07:11PM 43.3703 -87.9739 355° North 384 442 16,100  Level Chicago Center
07:12PM 43.4756 -87.9886 354° North 382 440 16,100  Level Chicago Center
07:13PM 43.5808 -88.0033 354° North 383 441 16,100 -360 Level Chicago Center
07:14PM 43.6506 -88.0128 354° North 383 441 15,600 -1,200 Descending Minneapolis Center
07:15PM 43.7583 -88.0269 355° North 388 447 14,200 -1,440 Descending Minneapolis Center
07:16PM 43.8667 -88.0439 354° North 392 451 12,700 -1,560 Descending Minneapolis Center
07:17PM 43.9747 -88.0578 355° North 390 449 11,100 -1,320 Descending Minneapolis Center
07:18PM 44.0803 -88.0517 North 325 374 10,100 -1,260 Descending Minneapolis Center
07:19PM 44.1600 -88.0456 North 293 337 8,300 -1,740 Descending Minneapolis Center
07:20PM 44.2506 -88.0408 North 283 326 6,200 -1,980 Descending Minneapolis Center
07:21PM 44.3256 -88.0411 360° North 274 315 4,300 -1,620 Descending Minneapolis Center
07:22PM 44.3983 -88.0411 360° North 265 305 3,000 -660 Descending Minneapolis Center
07:23PM 44.4775 -88.0433 359° North 249 287 3,000 -60 Level Minneapolis Center
07:24PM 44.5436 -88.0464 358° North 242 278 2,900 -540 Descending Minneapolis Center
07:25PM 44.5739 -88.0889 315° West 214 246 2,000 -900 Descending Minneapolis Center